National Weather Service United States Department of Commerce

Turning Stormy in the Northwest

An active fall storm pattern developing in the Pacific Northwest this week will bring areas of heavy rain and high elevation snow. Northern California will benefit from rainfall this week that will aid firefighters given the recent large wildfires. Read More >

                                      ZTL Airspace Summary / KAGS TAF                    For ATC Planning Purposes only
ZTL Airspace Summary:
High pressure will continue to dominate the airspace. Expect VFR conditions under mostly clear skies. Surface winds will be northeast to east at 8-12kts. Flight Hazards: None expected.

Updated: 10/18/2017 12:30 PM
 

Augusta Terminal Aerodrome Forecast:
 
FTUS42 KCAE 181720
TAFAGS
TAF
KAGS 181720Z 1818/1918 05008KT P6SM SKC
     FM182300 VRB03KT P6SM SKC
     FM191500 04006KT P6SM SKC=

 

AGS METAR:  
SAUS70 KAGS 182000 RRA
METAR KAGS 181953Z AUTO 07007KT 10SM CLR 24/02 A3026 RMK AO2 SLP245
     T02390017 $

Go to KAGS TAF TDA
Go to KAGS TAF TDA

 
AGS TRACON HAZARDS
AGS TRACON: SFC-10000
AVG CIG BASE WHERE REPORTED BLW 10000FT: NONE REPORTED
LOWEST REPORTED CIG: NONE REPORTED
LOWEST REPORTED FLIGHT CAT: VFR
METARS:
KIIY 181955Z AUTO 08005KT 10SM CLR 20/05 A3028 RMK AO2 TSNO
KDNL 181953Z AUTO VRB05KT 10SM CLR 24/02 A3027 RMK AO2 SLP247 T02390022
KAIK 181955Z AUTO 04003KT 10SM CLR 21/02 A3031 RMK AO2
KAGS 181953Z AUTO 07007KT 10SM CLR 24/02 A3026 RMK AO2 SLP245 T02390017 $
KHQU 181955Z AUTO 11005KT 10SM CLR 21/04 A3032 RMK AO2 T02120042
K2J3 181955Z AUTO 06009KT 10SM CLR 23/02 A3025 RMK AO2 T02340025

AGS TRACON HAZARD

Forecast Surface Map Loop / Collaborative Convective Forecast Product / Vertical Wind Profile
Weather Map

 

AIRMETs & SIGMETS/ Southeast Radar loop / Satellite Image (click on image to enlarge)
Weather Map Southeast Radar Loop

satellite